createdAt,value
2022-11-25T00:01:29.295Z,93745.72
2022-11-25T00:06:35.601Z,93763.84
2022-11-25T00:11:41.260Z,93776.63
2022-11-25T00:16:48.457Z,93772.69
2022-11-25T00:21:51.929Z,93780.66
2022-11-25T00:26:55.357Z,93776.09
2022-11-25T00:31:59.112Z,93763.31
2022-11-25T00:37:02.727Z,93759.91
2022-11-25T00:42:24.160Z,93766.41
2022-11-25T00:47:29.850Z,93776.88
2022-11-25T00:52:37.271Z,93780.31
2022-11-25T00:57:40.079Z,93786.97
2022-11-25T01:02:43.482Z,93776.19
2022-11-25T01:07:49.574Z,93812.47
2022-11-25T01:12:52.704Z,93798.63
2022-11-25T01:17:56.769Z,93801.41
2022-11-25T01:23:00.050Z,93792.00
2022-11-25T01:28:05.310Z,93793.75
2022-11-25T01:33:08.826Z,93795.56
2022-11-25T01:38:11.912Z,93802.28
2022-11-25T01:43:15.387Z,93795.00
2022-11-25T01:48:28.517Z,93804.94
2022-11-25T01:53:32.277Z,93801.09
2022-11-25T01:58:39.167Z,93805.06
2022-11-25T02:03:47.296Z,93809.59
2022-11-25T02:08:54.338Z,93795.84
2022-11-25T02:13:59.679Z,93809.72
2022-11-25T02:19:03.909Z,93805.50
2022-11-25T02:24:41.529Z,93808.66
2022-11-25T02:29:45.671Z,93811.91
2022-11-25T02:34:49.281Z,93817.34
2022-11-25T02:39:55.076Z,93818.41
2022-11-25T02:44:58.147Z,93838.78
2022-11-25T02:50:01.254Z,93826.97
2022-11-25T02:55:06.403Z,93835.13
2022-11-25T03:00:10.119Z,93837.78
2022-11-25T03:05:14.888Z,93845.59
2022-11-25T03:10:18.194Z,93838.72
2022-11-25T03:15:22.252Z,93810.13
2022-11-25T03:20:25.885Z,93836.19
2022-11-25T03:25:29.067Z,93833.63
2022-11-25T03:30:32.589Z,93838.47
2022-11-25T03:35:37.846Z,93859.59
2022-11-25T03:40:41.599Z,93852.69
2022-11-25T03:45:50.480Z,93862.53
2022-11-25T03:50:54.575Z,93864.91
2022-11-25T03:56:00.362Z,93869.25
2022-11-25T04:01:04.425Z,93872.97
2022-11-25T04:06:08.686Z,93866.75
2022-11-25T04:11:12.382Z,93863.28
2022-11-25T04:16:25.324Z,93884.44
2022-11-25T04:21:29.810Z,93897.22
2022-11-25T04:26:34.277Z,93907.69
2022-11-25T04:31:38.350Z,93894.97
2022-11-25T04:36:42.470Z,93912.13
2022-11-25T04:41:46.368Z,93916.28
2022-11-25T04:46:50.374Z,93907.28
2022-11-25T04:51:54.239Z,93905.22
2022-11-25T04:56:58.389Z,93911.34
2022-11-25T05:02:02.919Z,93917.22
2022-11-25T05:07:13.123Z,93924.88
2022-11-25T05:12:23.335Z,93933.66
2022-11-25T05:17:29.779Z,93934.91
2022-11-25T05:22:35.144Z,93949.81
2022-11-25T05:27:40.093Z,93947.00
2022-11-25T05:32:46.406Z,93960.75
2022-11-25T05:37:49.687Z,93967.28
2022-11-25T05:42:56.100Z,93981.84
2022-11-25T05:48:00.743Z,93984.34
2022-11-25T05:53:05.603Z,93992.50
2022-11-25T05:58:12.383Z,93980.75
2022-11-25T06:03:18.454Z,93979.41
2022-11-25T06:08:22.695Z,93982.56
2022-11-25T06:13:26.399Z,93980.88
2022-11-25T06:18:29.673Z,93985.72
2022-11-25T06:23:33.511Z,93990.59
2022-11-25T06:28:37.441Z,93986.38
2022-11-25T06:33:41.017Z,93999.94
2022-11-25T06:38:51.858Z,94019.53
2022-11-25T06:43:55.665Z,94009.75
2022-11-25T06:49:02.206Z,94011.81
2022-11-25T06:54:06.033Z,94001.81
2022-11-25T06:59:09.273Z,93991.91
2022-11-25T07:04:12.826Z,93993.59
2022-11-25T07:09:16.053Z,93986.31
2022-11-25T07:14:19.159Z,93977.19
2022-11-25T07:19:22.335Z,93981.38
2022-11-25T07:24:25.730Z,93985.03
2022-11-25T07:34:54.194Z,93986.56
2022-11-25T07:39:57.349Z,93984.34
2022-11-25T07:45:00.918Z,93990.19
2022-11-25T07:50:22.064Z,94000.53
2022-11-25T07:55:25.151Z,93999.06
2022-11-25T08:00:28.591Z,94004.78
2022-11-25T08:05:34.027Z,94013.94
2022-11-25T08:10:41.205Z,94025.84
2022-11-25T08:15:45.004Z,94028.59
2022-11-25T08:20:48.578Z,94029.75
2022-11-25T08:25:52.297Z,94037.28
2022-11-25T08:31:03.721Z,94028.72
2022-11-25T08:36:07.881Z,94036.78
2022-11-25T08:41:21.386Z,94040.53
2022-11-25T08:46:27.423Z,94038.56
2022-11-25T08:51:35.194Z,94037.97
2022-11-25T08:56:40.580Z,94049.19
2022-11-25T09:01:44.975Z,94054.09
2022-11-25T09:06:48.293Z,94049.66
2022-11-25T09:11:51.610Z,94046.66
2022-11-25T09:16:57.435Z,94043.03
2022-11-25T09:22:00.671Z,94038.41
2022-11-25T09:27:04.207Z,94048.44
2022-11-25T09:32:07.404Z,94036.31
2022-11-25T09:37:12.289Z,94032.69
2022-11-25T09:42:46.197Z,94028.91
2022-11-25T09:48:07.611Z,94027.03
2022-11-25T09:53:29.258Z,94014.41
2022-11-25T09:58:48.427Z,94006.06
2022-11-25T10:04:04.453Z,94029.34
2022-11-25T10:09:16.397Z,94026.06
2022-11-25T10:14:27.364Z,94019.03
2022-11-25T10:19:56.400Z,94012.94
2022-11-25T10:25:06.374Z,94028.41
2022-11-25T10:30:44.753Z,94019.25
2022-11-25T10:35:53.834Z,94018.31
2022-11-25T10:40:58.625Z,94016.28
2022-11-25T10:46:22.828Z,94013.47
2022-11-25T10:51:46.945Z,94012.03
2022-11-25T10:56:51.682Z,94004.47
2022-11-25T11:02:19.624Z,93982.53
2022-11-25T11:07:24.222Z,93997.50
2022-11-25T11:12:30.692Z,93995.41
2022-11-25T11:17:37.299Z,93997.94
2022-11-25T11:22:49.482Z,93989.66
2022-11-25T11:27:52.790Z,93985.19
2022-11-25T11:33:04.120Z,93992.63
2022-11-25T11:38:33.552Z,93983.91
2022-11-25T11:44:07.593Z,93979.53
2022-11-25T11:49:30.714Z,93984.66
2022-11-25T11:54:43.174Z,93960.81
2022-11-25T11:59:50.406Z,93960.81
2022-11-25T12:05:14.551Z,93961.16
2022-11-25T12:10:45.183Z,93966.13
2022-11-25T12:15:59.396Z,93948.16
2022-11-25T12:21:11.058Z,93951.31
2022-11-25T12:26:31.846Z,93942.88
2022-11-25T12:31:50.673Z,93933.69
2022-11-25T12:37:03.175Z,93926.66
2022-11-25T12:42:18.356Z,93915.41
2022-11-25T12:47:22.214Z,93933.56
2022-11-25T12:52:56.499Z,93935.72
2022-11-25T12:58:29.850Z,93929.91
2022-11-25T13:04:16.103Z,93940.69
2022-11-25T13:09:47.187Z,93947.16
2022-11-25T13:15:08.961Z,93946.38
2022-11-25T13:20:46.119Z,93940.72
2022-11-25T13:25:52.047Z,93926.47
2022-11-25T13:30:55.914Z,93906.59
2022-11-25T13:35:59.559Z,93924.41
2022-11-25T13:41:21.904Z,93912.25
2022-11-25T13:46:43.848Z,93906.44
2022-11-25T13:51:52.429Z,93916.75
2022-11-25T13:57:38.492Z,93918.63
2022-11-25T14:02:45.798Z,93931.34
2022-11-25T14:08:08.073Z,93953.31
2022-11-25T14:13:47.289Z,93964.66
2022-11-25T14:19:50.008Z,93969.31
2022-11-25T14:24:50.587Z,93966.34
2022-11-25T14:30:07.687Z,93965.16
2022-11-25T14:35:17.317Z,93959.00
2022-11-25T14:40:36.979Z,93958.75
2022-11-25T14:45:40.421Z,93948.19
2022-11-25T14:51:07.641Z,93939.03
2022-11-25T14:56:12.476Z,93946.78
2022-11-25T15:01:22.778Z,93946.69
2022-11-25T15:06:38.923Z,93936.25
2022-11-25T15:11:42.599Z,93939.47
2022-11-25T15:16:46.748Z,93941.81
2022-11-25T15:22:23.069Z,93945.75
2022-11-25T15:27:29.560Z,93918.66
2022-11-25T15:32:37.914Z,93929.25
2022-11-25T15:37:41.524Z,93932.41
2022-11-25T15:42:45.610Z,93932.38
2022-11-25T15:47:49.025Z,93915.09
2022-11-25T15:52:56.825Z,93941.31
2022-11-25T15:58:21.424Z,93949.13
2022-11-25T16:03:25.202Z,93934.06
2022-11-25T16:08:36.905Z,93963.44
2022-11-25T16:13:40.308Z,93945.81
2022-11-25T16:19:03.466Z,93975.31
2022-11-25T16:24:06.907Z,93970.09
2022-11-25T16:29:47.879Z,93979.75
2022-11-25T16:34:51.728Z,93981.19
2022-11-25T16:39:55.407Z,93960.69
2022-11-25T16:45:01.173Z,93967.56
2022-11-25T16:50:14.367Z,93972.59
2022-11-25T16:55:18.861Z,93961.50
2022-11-25T17:00:22.245Z,93971.72
2022-11-25T17:05:27.263Z,93977.22
2022-11-25T17:10:30.742Z,93972.22
2022-11-25T17:15:36.669Z,93970.72
2022-11-25T17:20:40.969Z,93968.38
2022-11-25T17:25:49.193Z,93951.91
2022-11-25T17:30:53.068Z,93953.59
2022-11-25T17:35:56.223Z,93965.31
2022-11-25T17:40:59.931Z,93947.31
2022-11-25T17:46:03.591Z,93961.00
2022-11-25T17:51:07.899Z,93959.25
2022-11-25T17:56:10.996Z,93976.44
2022-11-25T18:01:14.777Z,93973.03
2022-11-25T18:06:18.606Z,93985.25
2022-11-25T18:11:23.235Z,93965.44
2022-11-25T18:16:29.255Z,93965.91
2022-11-25T18:21:32.626Z,93971.47
2022-11-25T18:26:43.771Z,93961.72
2022-11-25T18:31:49.089Z,93968.75
2022-11-25T18:36:53.978Z,93961.66
2022-11-25T18:42:00.260Z,93934.91
2022-11-25T18:47:05.037Z,93941.44
2022-11-25T18:52:08.303Z,93947.50
2022-11-25T18:57:15.665Z,93930.38
2022-11-25T19:02:19.945Z,93957.59
2022-11-25T19:07:23.512Z,93954.56
2022-11-25T19:12:27.314Z,93952.47
2022-11-25T19:17:31.088Z,93956.56
2022-11-25T19:22:35.386Z,93931.63
2022-11-25T19:27:54.011Z,93945.56
2022-11-25T19:33:00.664Z,93928.84
2022-11-25T19:38:26.479Z,93932.91
2022-11-25T19:43:30.115Z,93932.81
2022-11-25T19:48:39.393Z,93935.63
2022-11-25T19:53:43.352Z,93932.69
2022-11-25T19:58:46.652Z,93916.75
2022-11-25T20:03:51.637Z,93928.84
2022-11-25T20:08:57.397Z,93921.81
2022-11-25T20:14:05.776Z,93924.53
2022-11-25T20:19:17.051Z,93925.78
2022-11-25T20:24:21.427Z,93931.06
2022-11-25T20:29:30.451Z,93926.34
2022-11-25T20:34:38.802Z,93929.75
2022-11-25T20:39:45.549Z,93935.03
2022-11-25T20:44:54.657Z,93936.25
2022-11-25T20:50:00.970Z,93933.09
2022-11-25T20:55:24.102Z,93950.25
2022-11-25T21:00:28.990Z,93946.28
2022-11-25T21:05:32.837Z,93948.38
2022-11-25T21:10:36.454Z,93938.16
2022-11-25T21:15:40.014Z,93941.03
2022-11-25T21:20:44.343Z,93924.50
2022-11-25T21:25:49.404Z,93938.09
2022-11-25T21:30:53.613Z,93925.28
2022-11-25T21:35:57.161Z,93926.09
2022-11-25T21:41:01.091Z,93894.72
2022-11-25T21:46:10.673Z,93915.16
2022-11-25T21:51:22.001Z,93898.97
2022-11-25T21:56:35.943Z,93907.56
2022-11-25T22:01:39.256Z,93903.72
2022-11-25T22:06:43.560Z,93908.16
2022-11-25T22:11:50.724Z,93916.09
2022-11-25T22:16:55.755Z,93903.38
2022-11-25T22:21:59.154Z,93905.06
2022-11-25T22:27:06.791Z,93903.84
2022-11-25T22:32:15.456Z,93867.81
2022-11-25T22:37:24.454Z,93877.09
2022-11-25T22:42:30.439Z,93886.03
2022-11-25T22:47:46.761Z,93877.47
2022-11-25T22:52:51.898Z,93863.75
2022-11-25T22:57:57.633Z,93869.88
2022-11-25T23:03:03.277Z,93871.47
2022-11-25T23:08:16.585Z,93865.91
2022-11-25T23:13:20.927Z,93862.44
2022-11-25T23:18:27.581Z,93857.00
2022-11-25T23:23:31.100Z,93832.44
2022-11-25T23:28:34.923Z,93824.56
2022-11-25T23:33:44.999Z,93818.69
2022-11-25T23:38:55.132Z,93823.69
2022-11-25T23:44:30.069Z,93809.47
2022-11-25T23:49:38.231Z,93812.41
2022-11-25T23:54:47.522Z,93807.84
2022-11-25T23:59:52.042Z,93800.47
